Time;durP1;ratioP1;P1;durP2;ratioP2;P2;SDS_P1;SDS_P2;PMS_P1;PMS_P2;Temp;Humidity;BMP_temperature;BMP_pressure;BME280_temperature;BME280_humidity;BME280_pressure;Samples;Min_cycle;Max_cycle;Signal;HPM_P1;HPM_P2
2024/01/10 00:01:59;;;;;;;10.55;4.43;;;;;;;-148.88;79.52;-17125.47;5036157;28;20061;-83
2024/01/10 00:04:24;;;;;;;10.70;4.07;;;;;;;-148.88;79.31;-17125.47;5034372;28;20033;-84
2024/01/10 00:06:49;;;;;;;12.65;4.68;;;;;;;-148.88;80.56;-17125.47;5035330;28;20023;-84
2024/01/10 00:09:15;;;;;;;10.77;4.63;;;;;;;-148.88;81.14;-17125.47;5035702;28;20025;-83
2024/01/10 00:11:40;;;;;;;11.32;3.80;;;;;;;-148.88;80.61;-17125.47;5038231;28;20522;-84
2024/01/10 00:14:05;;;;;;;13.55;4.10;;;;;;;-148.88;81.05;-17125.47;5035865;28;20025;-84
2024/01/10 00:16:31;;;;;;;11.45;3.70;;;;;;;-148.88;81.33;-17125.47;5035689;28;20087;-84
2024/01/10 00:18:56;;;;;;;10.32;4.30;;;;;;;-148.88;81.48;-17125.47;5035918;28;20067;-84
2024/01/10 00:21:21;;;;;;;10.93;4.13;;;;;;;-148.88;81.31;-17125.47;5034293;28;20017;-84
2024/01/10 00:23:47;;;;;;;11.27;3.70;;;;;;;-148.88;81.46;-17125.47;5034565;28;20125;-84
2024/01/10 00:26:12;;;;;;;12.73;4.20;;;;;;;-148.88;81.11;-17125.47;5035396;28;20037;-84
2024/01/10 00:28:37;;;;;;;9.77;3.60;;;;;;;-148.88;80.59;-17125.47;5035468;28;20170;-84
2024/01/10 00:31:03;;;;;;;10.63;3.67;;;;;;;-148.88;80.72;-17125.47;5035332;28;20480;-84
2024/01/10 00:33:28;;;;;;;10.30;4.50;;;;;;;-148.88;80.94;-17125.47;5035859;28;20549;-84
2024/01/10 00:35:53;;;;;;;9.55;4.45;;;;;;;-148.88;81.81;-17125.47;5035333;28;20025;-84
2024/01/10 00:38:18;;;;;;;10.23;4.28;;;;;;;-148.88;81.33;-17125.47;5035275;28;20028;-84
2024/01/10 00:40:44;;;;;;;10.15;4.22;;;;;;;-148.88;81.05;-17125.47;5033865;28;20022;-84
2024/01/10 00:43:09;;;;;;;11.70;3.95;;;;;;;-148.88;79.89;-17125.47;5035049;28;20022;-84
2024/01/10 00:45:34;;;;;;;10.30;4.22;;;;;;;-148.88;80.13;-17125.47;5034467;28;20399;-84
2024/01/10 00:48:00;;;;;;;8.95;3.80;;;;;;;-148.88;80.13;-17125.47;5035103;28;20021;-84
2024/01/10 00:50:25;;;;;;;9.75;3.67;;;;;;;-148.88;79.69;-17125.47;5039221;28;20017;-84
2024/01/10 00:52:50;;;;;;;9.48;3.53;;;;;;;-148.88;79.84;-17125.47;5038178;28;20388;-84
2024/01/10 00:55:16;;;;;;;7.50;3.58;;;;;;;-148.88;79.95;-17125.47;5036354;28;20021;-85
2024/01/10 00:57:41;;;;;;;10.50;3.80;;;;;;;-148.88;80.39;-17125.47;5035647;28;20373;-84
2024/01/10 01:00:09;;;;;;;7.18;3.28;;;;;;;-148.88;80.59;-17125.47;5037107;28;20025;-84
2024/01/10 01:02:34;;;;;;;10.93;4.25;;;;;;;-148.88;81.79;-17125.47;5033387;28;20029;-84
2024/01/10 01:04:59;;;;;;;13.38;4.28;;;;;;;-148.88;82.86;-17125.47;5033063;28;20057;-84
2024/01/10 01:07:26;;;;;;;8.10;3.63;;;;;;;-148.88;82.15;-17125.47;5034536;28;20118;-84
2024/01/10 01:09:51;;;;;;;6.72;3.92;;;;;;;-148.88;81.10;-17125.47;5034034;28;20091;-84
2024/01/10 01:12:16;;;;;;;10.80;3.83;;;;;;;-148.88;80.92;-17125.47;5032954;28;20422;-84
2024/01/10 01:14:42;;;;;;;9.80;4.07;;;;;;;-148.88;80.82;-17125.47;5033042;28;20021;-84
2024/01/10 01:17:07;;;;;;;8.70;3.10;;;;;;;-148.88;81.14;-17125.47;5034239;28;20038;-84
2024/01/10 01:19:32;;;;;;;8.43;3.53;;;;;;;-148.88;81.16;-17125.47;5034129;28;20083;-84
2024/01/10 01:21:57;;;;;;;9.82;3.53;;;;;;;-148.88;80.94;-17125.47;5034006;28;20113;-84
2024/01/10 01:24:23;;;;;;;11.20;4.75;;;;;;;-148.88;81.52;-17125.47;5033904;28;20028;-84
2024/01/10 01:26:48;;;;;;;10.98;4.18;;;;;;;-148.88;80.18;-17125.47;5033761;28;20025;-84
2024/01/10 01:29:14;;;;;;;9.32;3.88;;;;;;;-148.88;79.78;-17125.47;5033639;28;20033;-83
2024/01/10 01:31:39;;;;;;;12.50;5.00;;;;;;;-148.88;80.35;-17125.47;5034408;28;20029;-84
2024/01/10 01:34:04;;;;;;;10.45;4.43;;;;;;;-148.88;79.55;-17125.47;5032518;28;20028;-83
2024/01/10 01:36:31;;;;;;;10.60;4.22;;;;;;;-148.88;79.43;-17125.47;5034949;28;20136;-83
2024/01/10 01:38:56;;;;;;;11.40;4.22;;;;;;;-148.88;79.36;-17125.47;5032604;28;20053;-84
2024/01/10 01:41:21;;;;;;;12.90;4.20;;;;;;;-148.88;79.15;-17125.47;5033674;28;20411;-84
2024/01/10 01:43:47;;;;;;;12.73;5.00;;;;;;;-148.88;78.75;-17125.47;5034116;28;20025;-84
2024/01/10 01:46:12;;;;;;;12.82;4.88;;;;;;;-148.88;81.01;-17125.47;5034168;28;20075;-84
2024/01/10 01:48:38;;;;;;;13.70;4.75;;;;;;;-148.88;81.36;-17125.47;5035112;28;20031;-84
2024/01/10 01:51:07;;;;;;;10.38;4.10;;;;;;;-148.88;81.01;-17125.47;5032406;28;20017;-84
2024/01/10 01:53:36;;;;;;;10.60;4.10;;;;;;;-148.88;81.85;-17125.47;5033377;28;20032;-84
2024/01/10 01:56:06;;;;;;;11.77;4.18;;;;;;;-148.88;81.48;-17125.47;5033422;28;20116;-85
2024/01/10 01:58:32;;;;;;;8.18;3.75;;;;;;;-148.88;82.00;-17125.47;5032286;28;20053;-84
2024/01/10 02:00:58;;;;;;;13.70;4.63;;;;;;;-148.88;81.06;-17125.47;5035394;28;20025;-85
2024/01/10 02:03:23;;;;;;;10.98;4.18;;;;;;;-148.88;81.29;-17125.47;5038293;28;20032;-85
2024/01/10 02:05:49;;;;;;;8.88;3.70;;;;;;;-148.88;82.04;-17125.47;5036244;28;20033;-85
2024/01/10 02:08:14;;;;;;;14.98;4.60;;;;;;;-148.88;83.44;-17125.47;5036039;28;20484;-85
2024/01/10 02:10:40;;;;;;;10.48;4.18;;;;;;;-148.88;85.74;-17125.47;5036638;28;20026;-85
2024/01/10 02:13:08;;;;;;;11.35;3.90;;;;;;;-148.88;84.62;-17125.47;5034868;28;20063;-85
2024/01/10 02:15:34;;;;;;;12.73;4.30;;;;;;;-148.88;84.61;-17125.47;5032481;28;20079;-84
2024/01/10 02:18:00;;;;;;;11.30;4.72;;;;;;;-148.88;84.67;-17125.47;5032874;28;20041;-84
2024/01/10 02:20:25;;;;;;;13.00;4.72;;;;;;;-148.88;85.05;-17125.47;5032468;28;20022;-84
2024/01/10 02:22:50;;;;;;;11.85;4.35;;;;;;;-148.88;84.95;-17125.47;5032580;28;20116;-84
2024/01/10 02:25:16;;;;;;;10.13;4.13;;;;;;;-148.88;83.69;-17125.47;5033434;28;20112;-83
2024/01/10 02:27:41;;;;;;;11.43;4.35;;;;;;;-148.88;83.08;-17125.47;5033743;28;20026;-84
2024/01/10 02:30:08;;;;;;;10.07;3.85;;;;;;;-148.88;83.80;-17125.47;5033804;28;20425;-84
2024/01/10 02:32:34;;;;;;;11.40;4.05;;;;;;;-148.88;83.69;-17125.47;5033753;28;20377;-84
2024/01/10 02:35:00;;;;;;;9.73;4.28;;;;;;;-148.88;83.85;-17125.47;5033718;28;20029;-84
2024/01/10 02:37:25;;;;;;;6.53;3.55;;;;;;;-148.88;83.88;-17125.47;5033613;28;20387;-84
2024/01/10 02:39:51;;;;;;;9.70;4.15;;;;;;;-148.88;83.98;-17125.47;5033025;28;20023;-84
2024/01/10 02:42:16;;;;;;;14.48;5.03;;;;;;;-148.88;84.54;-17125.47;5032041;28;20065;-84
2024/01/10 02:44:42;;;;;;;12.68;4.70;;;;;;;-148.88;84.76;-17125.47;5032894;28;20563;-84
2024/01/10 02:47:07;;;;;;;15.05;4.47;;;;;;;-148.88;84.17;-17125.47;5032992;28;20045;-84
2024/01/10 02:49:33;;;;;;;17.00;4.75;;;;;;;-148.88;83.51;-17125.47;5032597;28;20092;-84
2024/01/10 02:51:59;;;;;;;9.70;4.35;;;;;;;-148.88;83.08;-17125.47;5031462;28;20018;-84
2024/01/10 02:54:24;;;;;;;10.23;4.57;;;;;;;-148.88;82.99;-17125.47;5031487;28;20045;-84
2024/01/10 02:56:49;;;;;;;14.27;5.28;;;;;;;-148.88;83.49;-17125.47;5032972;28;20036;-84
2024/01/10 02:59:15;;;;;;;10.57;4.22;;;;;;;-148.88;85.10;-17125.47;5031646;28;20022;-84
2024/01/10 03:01:40;;;;;;;10.80;4.45;;;;;;;-148.88;84.48;-17125.47;5032906;28;20025;-84
2024/01/10 03:04:05;;;;;;;10.32;4.47;;;;;;;-148.88;84.84;-17125.47;5032858;28;20030;-84
2024/01/10 03:06:31;;;;;;;10.82;4.93;;;;;;;-148.88;84.84;-17125.47;5032693;28;20025;-84
2024/01/10 03:08:56;;;;;;;8.93;4.00;;;;;;;-148.88;84.47;-17125.47;5031426;28;20048;-84
2024/01/10 03:11:22;;;;;;;9.90;3.65;;;;;;;-148.88;84.13;-17125.47;5031672;28;20080;-85
2024/01/10 03:13:48;;;;;;;12.30;4.15;;;;;;;-148.88;83.05;-17125.47;5031429;28;20072;-84
2024/01/10 03:16:14;;;;;;;13.48;4.55;;;;;;;-148.88;83.35;-17125.47;5032971;28;20029;-84
2024/01/10 03:18:39;;;;;;;11.57;4.47;;;;;;;-148.88;84.41;-17125.47;5035544;28;20026;-84
2024/01/10 03:21:05;;;;;;;11.27;4.75;;;;;;;-148.88;85.29;-17125.47;5036433;28;20510;-85
2024/01/10 03:23:30;;;;;;;11.57;5.10;;;;;;;-148.88;86.28;-17125.47;5036317;28;20033;-84
2024/01/10 03:25:56;;;;;;;12.40;4.10;;;;;;;-148.88;86.72;-17125.47;5038149;28;20029;-84
2024/01/10 03:28:22;;;;;;;14.07;4.05;;;;;;;-148.88;86.76;-17125.47;5036214;28;20025;-84
2024/01/10 03:30:47;;;;;;;10.82;4.47;;;;;;;-148.88;86.14;-17125.47;5036668;28;20027;-84
2024/01/10 03:33:13;;;;;;;10.55;4.75;;;;;;;-148.88;86.00;-17125.47;5035066;28;20041;-84
2024/01/10 03:35:38;;;;;;;10.13;4.47;;;;;;;-148.88;86.33;-17125.47;5037580;28;20395;-85
2024/01/10 03:38:03;;;;;;;13.38;4.57;;;;;;;-148.88;85.87;-17125.47;5037081;28;20025;-84
2024/01/10 03:40:29;;;;;;;13.95;4.53;;;;;;;-148.88;85.54;-17125.47;5036221;28;20017;-84
2024/01/10 03:42:54;;;;;;;11.65;4.07;;;;;;;-148.88;85.54;-17125.47;5036081;28;20025;-84
2024/01/10 03:45:22;;;;;;;10.32;4.22;;;;;;;-148.88;85.00;-17125.47;5035870;28;20061;-84
2024/01/10 03:47:50;;;;;;;11.23;4.63;;;;;;;-148.88;85.47;-17125.47;5036466;28;20048;-84
2024/01/10 03:50:21;;;;;;;11.88;5.88;;;;;;;-148.88;86.45;-17125.47;5034778;28;20108;-84
2024/01/10 03:52:46;;;;;;;9.38;4.82;;;;;;;-148.88;86.55;-17125.47;5044480;28;20033;-85
2024/01/10 03:55:13;;;;;;;12.07;4.38;;;;;;;-148.88;86.58;-17125.47;5044690;28;20563;-85
2024/01/10 03:57:38;;;;;;;9.98;4.47;;;;;;;-148.88;87.79;-17125.47;5043873;28;20028;-85
2024/01/10 04:00:08;;;;;;;12.70;5.57;;;;;;;-148.88;87.25;-17125.47;5044335;28;20021;-85
2024/01/10 04:02:33;;;;;;;22.20;5.03;;;;;;;-148.88;85.93;-17125.47;5043838;28;20025;-86
2024/01/10 04:04:58;;;;;;;10.98;4.25;;;;;;;-148.88;85.81;-17125.47;5044607;28;20127;-85
2024/01/10 04:07:26;;;;;;;13.65;5.82;;;;;;;-148.88;86.35;-17125.47;5043275;28;20049;-85
2024/01/10 04:09:51;;;;;;;18.33;5.47;;;;;;;-148.88;86.19;-17125.47;5043223;28;20030;-85
2024/01/10 04:12:17;;;;;;;12.73;4.68;;;;;;;-148.88;85.37;-17125.47;5044068;28;20048;-85
2024/01/10 04:14:42;;;;;;;11.25;5.00;;;;;;;-148.88;85.31;-17125.47;5042782;28;20032;-86
2024/01/10 04:17:09;;;;;;;13.43;4.88;;;;;;;-148.88;85.56;-17125.47;5043278;28;20029;-85
2024/01/10 04:19:34;;;;;;;15.77;5.47;;;;;;;-148.88;85.88;-17125.47;5042847;28;20032;-85
2024/01/10 04:22:00;;;;;;;10.32;4.65;;;;;;;-148.88;86.71;-17125.47;5041428;28;20022;-84
2024/01/10 04:24:25;;;;;;;16.02;5.68;;;;;;;-148.88;86.22;-17125.47;5041692;28;20033;-83
2024/01/10 04:26:51;;;;;;;13.68;5.05;;;;;;;-148.88;86.62;-17125.47;5038880;28;20041;-85
2024/01/10 04:29:16;;;;;;;14.48;5.18;;;;;;;-148.88;87.75;-17125.47;5039089;28;20045;-85
2024/01/10 04:31:42;;;;;;;11.95;3.90;;;;;;;-148.88;87.57;-17125.47;5041050;28;20026;-85
2024/01/10 04:34:07;;;;;;;16.17;5.30;;;;;;;-148.88;88.31;-17125.47;5039368;28;20026;-85
2024/01/10 04:36:33;;;;;;;19.33;6.72;;;;;;;-148.88;88.83;-17125.47;5041859;28;20091;-85
2024/01/10 04:38:58;;;;;;;17.45;5.13;;;;;;;-148.88;89.66;-17125.47;5039748;28;20026;-85
2024/01/10 04:41:24;;;;;;;13.25;5.10;;;;;;;-148.88;89.86;-17125.47;5041229;28;20091;-85
2024/01/10 04:43:49;;;;;;;12.82;5.28;;;;;;;-148.88;88.58;-17125.47;5041327;28;20029;-86
2024/01/10 04:46:15;;;;;;;16.48;5.35;;;;;;;-148.88;89.04;-17125.47;5042432;28;20036;-86
2024/01/10 04:48:40;;;;;;;16.10;5.88;;;;;;;-148.88;89.90;-17125.47;5043713;28;20028;-86
2024/01/10 04:51:06;;;;;;;15.82;6.18;;;;;;;-148.88;91.00;-17125.47;5042563;28;20032;-86
2024/01/10 04:53:31;;;;;;;14.43;6.32;;;;;;;-148.88;91.98;-17125.47;5042814;28;20029;-85
2024/01/10 04:55:56;;;;;;;12.75;5.35;;;;;;;-148.88;92.00;-17125.47;5042041;28;20079;-86
2024/01/10 04:58:22;;;;;;;14.02;6.82;;;;;;;-148.88;92.40;-17125.47;5041658;28;20029;-86
2024/01/10 05:00:47;;;;;;;12.52;6.28;;;;;;;-148.88;92.78;-17125.47;5036479;28;20056;-85
2024/01/10 05:03:12;;;;;;;17.40;5.72;;;;;;;-148.88;91.85;-17125.47;5038797;28;20021;-85
2024/01/10 05:05:38;;;;;;;13.50;5.00;;;;;;;-148.88;92.31;-17125.47;5040802;28;20033;-85
2024/01/10 05:08:03;;;;;;;12.10;5.55;;;;;;;-148.88;93.34;-17125.47;5037403;28;20492;-86
2024/01/10 05:10:29;;;;;;;14.13;5.47;;;;;;;-148.88;92.92;-17125.47;5037214;28;20383;-86
2024/01/10 05:12:54;;;;;;;17.88;6.43;;;;;;;-148.88;93.04;-17125.47;5037265;28;20075;-86
2024/01/10 05:15:19;;;;;;;16.10;6.45;;;;;;;-148.88;93.02;-17125.47;5039150;28;20026;-85
2024/01/10 05:17:45;;;;;;;15.82;6.03;;;;;;;-148.88;93.90;-17125.47;5041594;28;20025;-85
2024/01/10 05:20:10;;;;;;;17.00;5.78;;;;;;;-148.88;93.65;-17125.47;5039552;28;20040;-86
2024/01/10 05:22:36;;;;;;;16.02;6.03;;;;;;;-148.88;93.70;-17125.47;5037884;28;20025;-85
2024/01/10 05:25:01;;;;;;;20.60;7.57;;;;;;;-148.88;94.18;-17125.47;5038757;28;20068;-86
2024/01/10 05:27:27;;;;;;;14.52;6.45;;;;;;;-148.88;93.47;-17125.47;5040248;28;20022;-85
2024/01/10 05:29:52;;;;;;;18.33;6.38;;;;;;;-148.88;92.31;-17125.47;5039606;28;20025;-84
2024/01/10 05:32:17;;;;;;;18.45;6.75;;;;;;;-148.88;91.71;-17125.47;5037562;28;20025;-85
2024/01/10 05:34:44;;;;;;;13.48;6.38;;;;;;;-148.88;91.02;-17125.47;5034176;28;20030;-84
2024/01/10 05:37:09;;;;;;;26.23;7.18;;;;;;;-148.88;92.49;-17125.47;5036579;28;20029;-84
2024/01/10 05:39:35;;;;;;;16.35;5.88;;;;;;;-148.88;92.61;-17125.47;5040205;28;20373;-85
2024/01/10 05:42:02;;;;;;;20.38;6.97;;;;;;;-148.88;92.70;-17125.47;5039781;28;20052;-85
2024/01/10 05:44:27;;;;;;;11.90;5.72;;;;;;;-148.88;92.34;-17125.47;5038158;28;20034;-86
2024/01/10 05:46:53;;;;;;;19.98;5.88;;;;;;;-148.88;93.20;-17125.47;5036186;28;20028;-89
2024/01/10 05:49:22;;;;;;;23.00;7.55;;;;;;;-148.88;92.46;-17125.47;5034159;28;20087;-87
2024/01/10 05:51:47;;;;;;;22.75;7.78;;;;;;;-148.88;92.64;-17125.47;5035349;28;20033;-86
2024/01/10 05:54:12;;;;;;;20.30;7.20;;;;;;;-148.88;92.54;-17125.47;5036183;28;20039;-86
2024/01/10 05:56:38;;;;;;;16.20;6.22;;;;;;;-148.88;91.69;-17125.47;5035947;28;20480;-86
2024/01/10 05:59:03;;;;;;;18.17;5.65;;;;;;;-148.88;91.88;-17125.47;5037765;28;20017;-84
2024/01/10 06:01:29;;;;;;;19.58;6.72;;;;;;;-148.88;91.80;-17125.47;5040829;28;20041;-84
2024/01/10 06:03:54;;;;;;;17.88;7.32;;;;;;;-148.88;91.17;-17125.47;5039992;28;20507;-85
2024/01/10 06:06:19;;;;;;;18.45;5.97;;;;;;;-148.88;90.22;-17125.47;5036853;28;20029;-85
2024/01/10 06:08:45;;;;;;;17.77;6.57;;;;;;;-148.88;92.07;-17125.47;5034595;28;20056;-85
2024/01/10 06:11:11;;;;;;;20.30;7.20;;;;;;;-148.88;91.54;-17125.47;5035331;28;20068;-85
2024/01/10 06:13:39;;;;;;;16.15;7.13;;;;;;;-148.88;93.26;-17125.47;5035582;28;20468;-86
2024/01/10 06:16:04;;;;;;;23.80;8.10;;;;;;;-148.88;93.60;-17125.47;5035814;28;20440;-84
2024/01/10 06:18:30;;;;;;;16.35;7.20;;;;;;;-148.88;93.07;-17125.47;5033847;28;20086;-86
2024/01/10 06:20:55;;;;;;;18.13;6.53;;;;;;;-148.88;92.95;-17125.47;5035482;28;20132;-86
2024/01/10 06:23:20;;;;;;;18.63;6.97;;;;;;;-148.88;92.09;-17125.47;5035365;28;20121;-87
2024/01/10 06:25:46;;;;;;;20.98;8.43;;;;;;;-148.88;91.75;-17125.47;5035321;28;20033;-87
2024/01/10 06:28:11;;;;;;;20.30;7.18;;;;;;;-148.88;90.94;-17125.47;5032698;28;20025;-85
2024/01/10 06:30:36;;;;;;;17.20;6.45;;;;;;;-148.88;90.99;-17125.47;5035321;28;20040;-87
2024/01/10 06:33:02;;;;;;;27.02;7.82;;;;;;;-148.88;90.04;-17125.47;5034756;28;20026;-86
2024/01/10 06:35:27;;;;;;;16.30;6.03;;;;;;;-148.88;90.14;-17125.47;5041309;28;20048;-87
2024/01/10 06:37:53;;;;;;;17.42;6.85;;;;;;;-148.88;89.73;-17125.47;5035803;28;20025;-86
2024/01/10 06:40:23;;;;;;;19.17;6.25;;;;;;;-148.88;89.36;-17125.47;5035155;28;20025;-87
2024/01/10 06:42:49;;;;;;;17.17;6.68;;;;;;;-148.88;89.53;-17125.47;5034138;28;20500;-85
2024/01/10 06:45:14;;;;;;;14.95;6.88;;;;;;;-148.88;90.49;-17125.47;5037055;28;20068;-87
2024/01/10 06:47:39;;;;;;;13.05;6.97;;;;;;;-148.88;90.06;-17125.47;5040666;28;20025;-87
2024/01/10 06:50:05;;;;;;;12.40;6.18;;;;;;;-148.88;90.17;-17125.47;5037493;28;20030;-87
2024/01/10 06:52:31;;;;;;;14.38;6.00;;;;;;;-148.88;90.56;-17125.47;5034994;28;20071;-88
2024/01/10 06:54:57;;;;;;;21.92;8.52;;;;;;;-148.88;89.95;-17125.47;5039291;28;20029;-86
2024/01/10 06:57:26;;;;;;;19.60;6.88;;;;;;;-148.88;88.64;-17125.47;5041057;28;20021;-86
2024/01/10 07:00:03;;;;;;;24.63;7.22;;;;;;;-148.88;88.78;-17125.47;5038493;28;20026;-86
2024/01/10 07:02:32;;;;;;;14.32;6.22;;;;;;;-148.88;88.87;-17125.47;5037887;28;20033;-87
2024/01/10 07:04:57;;;;;;;19.25;7.75;;;;;;;-148.88;88.53;-17125.47;5041134;28;20037;-86
2024/01/10 07:07:59;;;;;;;16.70;6.28;;;;;;;-148.88;87.34;-17125.47;5039878;28;20399;-86
2024/01/10 07:10:28;;;;;;;18.88;6.93;;;;;;;-148.88;87.50;-17125.47;5041637;28;20049;-86
2024/01/10 07:13:04;;;;;;;16.65;6.75;;;;;;;-148.88;86.56;-17125.47;5042334;28;20096;-86
2024/01/10 07:15:29;;;;;;;17.95;6.55;;;;;;;-148.88;85.93;-17125.47;5038347;28;20043;-85
2024/01/10 07:17:55;;;;;;;16.20;6.95;;;;;;;-148.88;85.57;-17125.47;5037722;28;20030;-84
2024/01/10 07:20:20;;;;;;;17.23;7.03;;;;;;;-148.88;85.71;-17125.47;5040816;28;20032;-85
2024/01/10 07:22:45;;;;;;;17.10;6.78;;;;;;;-148.88;85.33;-17125.47;5041204;28;20403;-84
2024/01/10 07:25:14;;;;;;;14.15;6.00;;;;;;;-148.88;85.42;-17125.47;5038201;28;20017;-86
2024/01/10 07:27:45;;;;;;;16.58;6.40;;;;;;;-148.88;85.33;-17125.47;5036555;28;20037;-86
2024/01/10 07:30:13;;;;;;;18.13;8.07;;;;;;;-148.88;85.20;-17125.47;5038253;28;20025;-87
2024/01/10 07:32:44;;;;;;;20.35;7.13;;;;;;;-148.88;85.05;-17125.47;5038887;28;20435;-85
2024/01/10 07:35:10;;;;;;;15.05;7.15;;;;;;;-148.88;84.71;-17125.47;5039871;28;20052;-87
2024/01/10 07:37:38;;;;;;;18.50;8.00;;;;;;;-148.88;85.47;-17125.47;5040209;28;20472;-86
2024/01/10 07:40:13;;;;;;;24.40;8.32;;;;;;;-148.88;86.05;-17125.47;5037922;28;20612;-87
2024/01/10 07:42:39;;;;;;;17.08;7.07;;;;;;;-148.88;85.41;-17125.47;5041842;28;20040;-84
2024/01/10 07:45:05;;;;;;;15.38;6.90;;;;;;;-148.88;86.64;-17125.47;5041736;28;20036;-85
2024/01/10 07:47:31;;;;;;;18.13;6.78;;;;;;;-148.88;87.22;-17125.47;5039681;28;20030;-86
2024/01/10 07:49:57;;;;;;;21.90;7.60;;;;;;;-148.88;86.79;-17125.47;5037974;28;20036;-85
2024/01/10 07:52:22;;;;;;;21.42;7.35;;;;;;;-148.88;86.46;-17125.47;5039805;28;20079;-86
2024/01/10 07:54:48;;;;;;;18.25;7.05;;;;;;;-148.88;86.78;-17125.47;5039288;28;20029;-85
2024/01/10 07:57:13;;;;;;;15.43;6.72;;;;;;;-148.88;87.85;-17125.47;5045036;28;20021;-86
2024/01/10 07:59:39;;;;;;;16.65;6.55;;;;;;;-148.88;88.51;-17125.47;5044204;28;20022;-86
2024/01/10 08:02:04;;;;;;;16.08;6.50;;;;;;;-148.88;88.81;-17125.47;5041995;28;20483;-85
2024/01/10 08:04:29;;;;;;;15.23;6.93;;;;;;;-148.88;88.17;-17125.47;5039857;28;20052;-86
2024/01/10 08:06:55;;;;;;;20.45;7.70;;;;;;;-148.88;88.68;-17125.47;5044485;28;20392;-86
2024/01/10 08:09:24;;;;;;;20.63;7.85;;;;;;;-148.88;88.80;-17125.47;5041398;28;20025;-86
2024/01/10 08:11:49;;;;;;;23.75;7.35;;;;;;;-148.88;88.42;-17125.47;5046038;28;20504;-84
2024/01/10 08:14:15;;;;;;;14.18;6.50;;;;;;;-148.88;89.02;-17125.47;5049556;28;20037;-86
2024/01/10 08:16:41;;;;;;;18.95;7.80;;;;;;;-148.88;88.09;-17125.47;5048787;28;20026;-86
2024/01/10 08:19:07;;;;;;;20.25;7.97;;;;;;;-148.88;88.14;-17125.47;5048775;28;20060;-86
2024/01/10 08:21:33;;;;;;;25.63;9.05;;;;;;;-148.88;88.54;-17125.47;5047159;28;20029;-85
2024/01/10 08:23:58;;;;;;;25.40;9.55;;;;;;;-148.88;88.35;-17125.47;5037283;28;20025;-85
2024/01/10 08:26:23;;;;;;;20.40;7.90;;;;;;;-148.88;87.79;-17125.47;5038825;28;20017;-85
2024/01/10 08:28:51;;;;;;;20.30;7.88;;;;;;;-148.88;88.29;-17125.47;5042657;28;20060;-86
2024/01/10 08:31:17;;;;;;;15.75;6.60;;;;;;;-148.88;89.28;-17125.47;5044296;28;20025;-85
2024/01/10 08:33:45;;;;;;;12.70;6.65;;;;;;;-148.88;88.81;-17125.47;5043766;28;20029;-85
2024/01/10 08:36:10;;;;;;;15.38;7.55;;;;;;;-148.88;89.95;-17125.47;5047636;28;20021;-85
2024/01/10 08:38:36;;;;;;;22.67;8.68;;;;;;;-148.88;88.39;-17125.47;5048761;28;20032;-85
2024/01/10 08:41:03;;;;;;;20.17;8.50;;;;;;;-148.88;88.34;-17125.47;5048057;28;20502;-85
2024/01/10 08:43:28;;;;;;;29.00;10.30;;;;;;;-148.88;87.23;-17125.47;5047463;28;20044;-86
2024/01/10 08:45:54;;;;;;;32.33;10.90;;;;;;;-148.88;87.55;-17125.47;5045061;28;20427;-84
2024/01/10 08:48:19;;;;;;;20.55;8.73;;;;;;;-148.88;87.63;-17125.47;5042692;28;20026;-85
2024/01/10 08:50:44;;;;;;;18.92;7.40;;;;;;;-148.88;87.65;-17125.47;5042886;28;20443;-85
2024/01/10 08:53:10;;;;;;;22.90;9.05;;;;;;;-148.88;87.15;-17125.47;5040311;28;20048;-84
2024/01/10 08:55:37;;;;;;;25.10;8.52;;;;;;;-148.88;86.95;-17125.47;5037442;28;20029;-85
2024/01/10 08:58:03;;;;;;;25.20;9.93;;;;;;;-148.88;86.26;-17125.47;5034979;28;20093;-86
2024/01/10 09:00:28;;;;;;;20.90;10.20;;;;;;;-148.88;86.33;-17125.47;5035806;28;20594;-87
2024/01/10 09:02:54;;;;;;;19.55;8.40;;;;;;;-148.88;86.43;-17125.47;5040356;28;20025;-85
2024/01/10 09:05:21;;;;;;;25.75;8.23;;;;;;;-148.88;84.68;-17125.47;5036633;28;20033;-87
2024/01/10 09:07:49;;;;;;;23.55;8.05;;;;;;;-148.88;84.37;-17125.47;5037048;28;20495;-86
2024/01/10 09:10:15;;;;;;;23.20;9.75;;;;;;;-148.88;83.99;-17125.47;5036129;28;20407;-87
2024/01/10 09:12:43;;;;;;;25.33;9.25;;;;;;;-148.88;82.87;-17125.47;5038721;28;20021;-86
2024/01/10 09:15:12;;;;;;;16.10;7.47;;;;;;;-148.88;83.31;-17125.47;5038878;28;20053;-88
2024/01/10 09:17:38;;;;;;;19.40;7.65;;;;;;;-148.88;83.33;-17125.47;5037246;28;20021;-87
2024/01/10 09:20:13;;;;;;;22.15;8.18;;;;;;;-148.88;82.50;-17125.47;5037717;28;20510;-87
2024/01/10 09:22:39;;;;;;;27.15;9.35;;;;;;;-148.88;82.02;-17125.47;5038272;28;20029;-88
2024/01/10 09:25:08;;;;;;;25.70;9.82;;;;;;;-148.88;82.22;-17125.47;5037296;28;20365;-87
2024/01/10 09:27:48;;;;;;;23.02;8.30;;;;;;;-148.88;81.87;-17125.47;5037334;28;20029;-88
2024/01/10 09:30:16;;;;;;;22.38;8.48;;;;;;;-148.88;81.78;-17125.47;5038711;28;20021;-87
2024/01/10 09:32:41;;;;;;;18.95;7.40;;;;;;;-148.88;81.45;-17125.47;5038155;28;20025;-85
2024/01/10 09:35:08;;;;;;;25.65;8.32;;;;;;;-148.88;80.96;-17125.47;5037707;28;20381;-87
2024/01/10 09:37:39;;;;;;;22.80;8.57;;;;;;;-148.88;81.46;-17125.47;5037103;28;20043;-87
2024/01/10 09:40:07;;;;;;;21.25;8.63;;;;;;;-148.88;81.24;-17125.47;5039860;28;20052;-87
2024/01/10 09:42:37;;;;;;;21.70;8.38;;;;;;;-148.88;80.98;-17125.47;5039662;28;20090;-88
2024/01/10 09:45:08;;;;;;;23.77;9.07;;;;;;;-148.88;80.85;-17125.47;5041738;28;20071;-88
2024/01/10 09:47:42;;;;;;;26.98;9.63;;;;;;;-148.88;80.61;-17125.47;5038698;28;20025;-88
2024/01/10 09:50:14;;;;;;;22.30;8.45;;;;;;;-148.88;79.68;-17125.47;5037439;28;20068;-86
2024/01/10 09:53:23;;;;;;;21.25;7.97;;;;;;;-148.88;81.01;-17125.47;5035483;28;20021;-83
2024/01/10 09:55:59;;;;;;;19.17;8.30;;;;;;;-148.88;80.64;-17125.47;4992455;28;20412;-87
2024/01/10 09:58:25;;;;;;;23.77;8.60;;;;;;;-148.88;79.88;-17125.47;5036900;28;20411;-86
2024/01/10 10:00:51;;;;;;;20.77;8.93;;;;;;;-148.88;79.82;-17125.47;5038086;28;20102;-86
2024/01/10 10:03:22;;;;;;;27.48;9.88;;;;;;;-148.88;79.83;-17125.47;5036653;28;20033;-87
2024/01/10 10:05:49;;;;;;;23.75;8.30;;;;;;;-148.88;79.24;-17125.47;5036431;28;20076;-87
2024/01/10 10:08:15;;;;;;;18.88;7.78;;;;;;;-148.88;79.74;-17125.47;5034264;28;20502;-85
2024/01/10 10:10:44;;;;;;;19.23;8.43;;;;;;;-148.88;79.52;-17125.47;5035196;28;20033;-86
2024/01/10 10:13:23;;;;;;;26.85;10.40;;;;;;;-148.88;81.26;-17125.47;5033600;28;20112;-85
2024/01/10 10:16:04;;;;;;;27.42;9.48;;;;;;;-148.88;80.84;-17125.47;5033431;28;20120;-87
2024/01/10 10:18:32;;;;;;;27.85;8.82;;;;;;;-148.88;79.26;-17125.47;5032707;28;20032;-86
2024/01/10 10:21:14;;;;;;;24.02;9.27;;;;;;;-148.88;79.56;-17125.47;5032796;28;20024;-84
2024/01/10 10:24:09;;;;;;;19.63;8.38;;;;;;;-148.88;77.60;-17125.47;5033815;28;20029;-86
2024/01/10 10:26:35;;;;;;;29.52;10.20;;;;;;;-148.88;78.79;-17125.47;5032885;28;20049;-86
2024/01/10 10:29:01;;;;;;;23.45;10.57;;;;;;;-148.88;77.20;-17125.47;5033344;28;20049;-85
2024/01/10 10:31:26;;;;;;;26.60;9.82;;;;;;;-148.88;76.61;-17125.47;5032480;28;20076;-85
2024/01/10 10:33:52;;;;;;;20.27;8.77;;;;;;;-148.88;76.97;-17125.47;5035310;28;20025;-85
2024/01/10 10:36:21;;;;;;;24.40;8.43;;;;;;;-148.88;75.75;-17125.47;5034325;28;20120;-85
2024/01/10 10:38:48;;;;;;;22.10;8.52;;;;;;;-148.88;73.56;-17125.47;5033559;28;20029;-88
2024/01/10 10:41:14;;;;;;;25.63;11.15;;;;;;;-148.88;73.06;-17125.47;5034097;28;20029;-87
2024/01/10 10:43:40;;;;;;;25.77;8.73;;;;;;;-148.88;73.18;-17125.47;5032383;28;20391;-86
2024/01/10 10:46:08;;;;;;;22.88;9.93;;;;;;;-148.88;72.06;-17125.47;5032419;28;20028;-88
2024/01/10 10:48:37;;;;;;;27.38;9.35;;;;;;;-148.88;70.41;-17125.47;5033090;28;20052;-87
2024/01/10 10:51:15;;;;;;;25.20;9.95;;;;;;;-148.88;70.54;-17125.47;5033030;28;20072;-87
2024/01/10 10:53:45;;;;;;;24.55;8.85;;;;;;;-148.88;68.49;-17125.47;5032909;28;20025;-88
2024/01/10 10:56:13;;;;;;;26.33;10.38;;;;;;;-148.88;66.76;-17125.47;5033090;28;20018;-87
2024/01/10 10:58:40;;;;;;;26.70;9.75;;;;;;;-148.88;66.66;-17125.47;5032757;28;20549;-85
2024/01/10 11:01:07;;;;;;;27.75;10.52;;;;;;;-148.88;64.70;-17125.47;5032318;28;20072;-85